createdAt,value
2018-06-17T00:00:50.252Z,0.00
2018-06-17T00:01:50.209Z,0.00
2018-06-17T00:02:50.168Z,0.00
2018-06-17T00:03:50.128Z,0.00
2018-06-17T00:04:50.083Z,0.00
2018-06-17T00:05:50.039Z,0.00
2018-06-17T00:06:49.997Z,0.00
2018-06-17T00:07:49.955Z,0.00
2018-06-17T00:08:49.913Z,0.00
2018-06-17T00:09:49.869Z,0.00
2018-06-17T00:10:49.827Z,0.00
2018-06-17T00:11:49.785Z,0.00
2018-06-17T00:12:49.743Z,0.00
2018-06-17T00:13:49.700Z,0.00
2018-06-17T00:14:49.657Z,0.00
2018-06-17T00:15:49.615Z,0.00
2018-06-17T00:16:49.572Z,0.00
2018-06-17T00:17:49.529Z,0.00
2018-06-17T00:18:49.490Z,0.00
2018-06-17T00:19:49.445Z,0.00
2018-06-17T00:20:49.403Z,0.00
2018-06-17T00:21:49.359Z,0.00
2018-06-17T00:22:49.319Z,0.00
2018-06-17T00:23:49.275Z,0.00
2018-06-17T00:24:49.233Z,0.00
2018-06-17T00:25:49.238Z,0.00
2018-06-17T00:26:49.154Z,0.00
2018-06-17T00:27:49.104Z,0.00
2018-06-17T00:28:49.062Z,0.00
2018-06-17T00:29:49.022Z,0.00
2018-06-17T00:30:48.977Z,0.00
2018-06-17T00:31:48.934Z,0.00
2018-06-17T00:32:48.892Z,0.00
2018-06-17T00:33:48.849Z,0.00
2018-06-17T00:34:48.807Z,0.00
2018-06-17T00:35:48.765Z,0.00
2018-06-17T00:36:48.722Z,0.00
2018-06-17T00:37:48.679Z,0.00
2018-06-17T00:38:48.637Z,0.00
2018-06-17T00:39:48.595Z,0.00
2018-06-17T00:40:48.553Z,0.00
2018-06-17T00:41:48.509Z,0.00
2018-06-17T00:42:48.467Z,0.00
2018-06-17T00:43:48.425Z,0.00
2018-06-17T00:44:48.382Z,0.00
2018-06-17T00:45:48.340Z,0.00
2018-06-17T00:46:48.297Z,0.00
2018-06-17T00:47:48.254Z,0.00
2018-06-17T00:48:48.262Z,0.00
2018-06-17T00:49:48.169Z,0.00
2018-06-17T00:50:48.126Z,0.00
2018-06-17T00:51:48.084Z,0.00
2018-06-17T00:52:48.042Z,0.00
2018-06-17T00:53:48.003Z,0.00
2018-06-17T00:54:47.959Z,0.00
2018-06-17T00:55:47.923Z,0.00
2018-06-17T00:56:47.872Z,0.00
2018-06-17T00:57:47.829Z,0.00
2018-06-17T00:58:47.786Z,0.00
2018-06-17T00:59:47.744Z,0.00
2018-06-17T01:00:47.703Z,0.00
2018-06-17T01:01:47.658Z,0.00
2018-06-17T01:02:47.616Z,0.00
2018-06-17T01:03:47.573Z,0.00
2018-06-17T01:04:47.531Z,0.00
2018-06-17T01:05:47.488Z,0.00
2018-06-17T01:06:47.446Z,0.00
2018-06-17T01:07:47.403Z,0.00
2018-06-17T01:08:47.360Z,0.00
2018-06-17T01:09:47.317Z,0.00
2018-06-17T01:10:47.276Z,0.00
2018-06-17T01:11:47.233Z,0.00
2018-06-17T01:12:47.192Z,0.00
2018-06-17T01:13:47.147Z,0.00
2018-06-17T01:14:47.105Z,0.00
2018-06-17T01:15:47.065Z,0.00
2018-06-17T01:16:47.021Z,0.00
2018-06-17T01:17:46.977Z,0.00
2018-06-17T01:18:46.935Z,0.00
2018-06-17T01:19:46.892Z,0.00
2018-06-17T01:20:46.850Z,0.00
2018-06-17T01:21:46.809Z,0.00
2018-06-17T01:22:46.765Z,0.00
2018-06-17T01:23:46.722Z,0.00
2018-06-17T01:24:46.680Z,0.00
2018-06-17T01:25:46.636Z,0.00
2018-06-17T01:26:46.594Z,0.00
2018-06-17T01:27:46.552Z,0.00
2018-06-17T01:28:46.510Z,0.00
2018-06-17T01:29:46.466Z,0.00
2018-06-17T01:30:46.424Z,0.00
2018-06-17T01:31:46.383Z,0.00
2018-06-17T01:32:46.338Z,0.00
2018-06-17T01:33:46.295Z,0.00
2018-06-17T01:34:46.253Z,0.00
2018-06-17T01:35:46.216Z,0.00
2018-06-17T01:36:46.169Z,0.00
2018-06-17T01:37:46.131Z,0.00
2018-06-17T01:38:46.082Z,0.00
2018-06-17T01:39:46.042Z,0.00
2018-06-17T01:40:46.001Z,0.00
2018-06-17T01:41:45.954Z,0.00
2018-06-17T01:42:45.912Z,0.00
2018-06-17T01:43:45.869Z,0.00
2018-06-17T01:44:45.827Z,0.00
2018-06-17T01:45:45.784Z,0.00
2018-06-17T01:46:45.741Z,0.00
2018-06-17T01:47:45.699Z,0.00
2018-06-17T01:48:45.657Z,0.00
2018-06-17T01:49:45.613Z,0.00
2018-06-17T01:50:45.668Z,0.00
2018-06-17T01:51:45.541Z,0.00
2018-06-17T01:52:45.487Z,0.00
2018-06-17T01:53:45.443Z,0.00
2018-06-17T01:54:45.405Z,0.00
2018-06-17T01:55:45.358Z,0.00
2018-06-17T01:56:45.316Z,0.00
2018-06-17T01:57:45.272Z,0.00
2018-06-17T01:58:45.230Z,0.00
2018-06-17T01:59:45.187Z,0.00
2018-06-17T02:00:45.145Z,0.00
2018-06-17T02:01:45.104Z,0.00
2018-06-17T02:02:45.059Z,0.00
2018-06-17T02:03:45.017Z,0.00
2018-06-17T02:04:44.974Z,0.00
2018-06-17T02:05:44.930Z,0.00
2018-06-17T02:06:44.888Z,0.00
2018-06-17T02:07:44.845Z,0.00
2018-06-17T02:08:44.804Z,0.00
2018-06-17T02:09:44.760Z,0.00
2018-06-17T02:10:44.717Z,0.00
2018-06-17T02:11:44.675Z,0.00
2018-06-17T02:12:44.632Z,0.00
2018-06-17T02:13:44.590Z,0.00
2018-06-17T02:14:44.546Z,0.00
2018-06-17T02:15:44.504Z,0.00
2018-06-17T02:16:44.463Z,0.00
2018-06-17T02:17:44.418Z,0.00
2018-06-17T02:18:44.375Z,0.00
2018-06-17T02:19:44.333Z,0.00
2018-06-17T02:20:44.291Z,0.00
2018-06-17T02:21:44.247Z,0.00
2018-06-17T02:22:44.204Z,0.00
2018-06-17T02:23:44.162Z,0.00
2018-06-17T02:24:44.119Z,0.00
2018-06-17T02:25:44.075Z,0.00
2018-06-17T02:26:44.033Z,0.00
2018-06-17T02:27:43.990Z,0.00
2018-06-17T02:28:43.948Z,0.00
2018-06-17T02:29:43.909Z,0.00
2018-06-17T02:30:43.862Z,0.00
2018-06-17T02:31:43.821Z,0.00
2018-06-17T02:32:43.777Z,0.00
2018-06-17T02:33:43.734Z,0.00
2018-06-17T02:34:43.691Z,0.00
2018-06-17T02:35:43.648Z,0.00
2018-06-17T02:36:43.607Z,0.00
2018-06-17T02:37:43.562Z,0.00
2018-06-17T02:38:43.522Z,0.00
2018-06-17T02:39:43.477Z,0.00
2018-06-17T02:40:43.434Z,0.00
2018-06-17T02:41:43.396Z,0.00
2018-06-17T02:42:43.349Z,0.00
2018-06-17T02:43:43.306Z,0.00
2018-06-17T02:44:43.264Z,0.00
2018-06-17T02:45:43.220Z,0.00
2018-06-17T02:46:43.177Z,0.00
2018-06-17T02:47:43.134Z,0.00
2018-06-17T02:48:43.092Z,0.00
2018-06-17T02:49:43.099Z,0.00
2018-06-17T02:50:43.006Z,0.00
2018-06-17T02:51:42.964Z,0.00
2018-06-17T02:52:42.922Z,0.00
2018-06-17T02:53:42.878Z,0.00
2018-06-17T02:54:42.836Z,0.00
2018-06-17T02:55:42.792Z,0.00
2018-06-17T02:56:42.750Z,0.00
2018-06-17T02:57:42.707Z,0.00
2018-06-17T02:58:42.663Z,0.00
2018-06-17T02:59:42.621Z,0.00
2018-06-17T03:00:42.580Z,0.00
2018-06-17T03:01:42.538Z,0.00
2018-06-17T03:02:42.495Z,0.00
2018-06-17T03:03:42.452Z,0.00
2018-06-17T03:04:42.407Z,0.00
2018-06-17T03:05:42.367Z,0.00
2018-06-17T03:06:42.320Z,0.00
2018-06-17T03:07:42.281Z,0.00
2018-06-17T03:08:42.238Z,0.00
2018-06-17T03:09:42.196Z,0.00
2018-06-17T03:10:42.199Z,0.00
2018-06-17T03:11:42.106Z,0.00
2018-06-17T03:12:42.064Z,0.00
2018-06-17T03:13:42.030Z,0.00
2018-06-17T03:14:41.979Z,0.00
2018-06-17T03:15:41.943Z,0.00
2018-06-17T03:16:41.892Z,0.00
2018-06-17T03:17:41.849Z,0.00
2018-06-17T03:18:41.806Z,0.00
2018-06-17T03:19:41.762Z,0.00
2018-06-17T03:20:41.720Z,0.00
2018-06-17T03:21:41.676Z,0.00
2018-06-17T03:22:41.634Z,0.00
2018-06-17T03:23:41.591Z,0.00
2018-06-17T03:24:41.555Z,0.00
2018-06-17T03:25:41.508Z,0.00
2018-06-17T03:26:41.463Z,0.00
2018-06-17T03:27:41.421Z,0.00
2018-06-17T03:28:41.377Z,0.00
2018-06-17T03:29:41.333Z,0.00
2018-06-17T03:30:41.301Z,0.00
2018-06-17T03:31:41.261Z,0.00
2018-06-17T03:32:41.206Z,0.00
2018-06-17T03:33:41.161Z,0.00
2018-06-17T03:34:41.119Z,0.00
2018-06-17T03:35:41.076Z,0.00
2018-06-17T03:36:41.034Z,0.00
2018-06-17T03:37:40.990Z,0.00
2018-06-17T03:38:40.947Z,0.00
2018-06-17T03:39:40.905Z,0.00
2018-06-17T03:40:40.862Z,0.00
2018-06-17T03:41:40.819Z,0.00
2018-06-17T03:42:40.776Z,0.00
2018-06-17T03:43:40.733Z,0.00
2018-06-17T03:44:40.696Z,0.00
2018-06-17T03:45:40.647Z,0.00
2018-06-17T03:46:40.604Z,0.00
2018-06-17T03:47:40.561Z,0.00
2018-06-17T03:48:40.519Z,0.00
2018-06-17T03:49:40.475Z,0.00
2018-06-17T03:50:40.435Z,0.00
2018-06-17T03:51:40.389Z,0.00
2018-06-17T03:52:40.347Z,0.00
2018-06-17T03:53:40.309Z,0.00
2018-06-17T03:54:40.260Z,0.00
2018-06-17T03:55:40.218Z,0.00
2018-06-17T03:56:40.175Z,0.00
2018-06-17T03:57:40.132Z,0.00
2018-06-17T03:58:40.090Z,0.00
2018-06-17T03:59:40.046Z,0.00
2018-06-17T04:00:40.005Z,0.00
2018-06-17T04:01:39.962Z,0.00
2018-06-17T04:02:39.917Z,0.00
2018-06-17T04:03:39.875Z,0.00
2018-06-17T04:04:39.833Z,0.00
2018-06-17T04:05:39.788Z,0.00
2018-06-17T04:06:39.749Z,0.00
2018-06-17T04:07:39.703Z,0.00
2018-06-17T04:08:39.660Z,0.00
2018-06-17T04:09:39.616Z,0.00
2018-06-17T04:10:39.574Z,5.63
2018-06-17T04:11:39.531Z,5.63
2018-06-17T04:12:39.488Z,5.63
2018-06-17T04:13:39.445Z,5.63
2018-06-17T04:14:39.402Z,5.63
2018-06-17T04:15:39.359Z,5.63
2018-06-17T04:16:39.318Z,5.63
2018-06-17T04:17:39.272Z,5.63
2018-06-17T04:18:39.231Z,5.63
2018-06-17T04:19:39.188Z,5.63
2018-06-17T04:20:39.145Z,5.63
2018-06-17T04:21:39.101Z,5.63
2018-06-17T04:22:39.058Z,5.63
2018-06-17T04:23:39.016Z,5.63
2018-06-17T04:24:38.973Z,5.63
2018-06-17T04:25:38.942Z,5.63
2018-06-17T04:26:38.887Z,5.63
2018-06-17T04:27:38.844Z,5.63
2018-06-17T04:28:38.802Z,5.63
2018-06-17T04:29:38.761Z,5.63
2018-06-17T04:30:38.716Z,5.63
2018-06-17T04:31:38.675Z,5.63
2018-06-17T04:32:38.630Z,5.63
2018-06-17T04:33:38.586Z,5.63
2018-06-17T04:34:38.544Z,5.63
2018-06-17T04:35:38.504Z,11.25
2018-06-17T04:36:38.458Z,11.25
2018-06-17T04:37:38.418Z,11.25
2018-06-17T04:38:38.373Z,16.88
2018-06-17T04:39:38.330Z,16.88
2018-06-17T04:40:38.287Z,16.88
2018-06-17T04:41:38.244Z,16.88
2018-06-17T04:42:38.201Z,16.88
2018-06-17T04:43:38.157Z,16.88
2018-06-17T04:44:38.115Z,16.88
2018-06-17T04:45:38.072Z,16.88
2018-06-17T04:46:38.031Z,16.88
2018-06-17T04:47:37.987Z,16.88
2018-06-17T04:48:37.944Z,16.88
2018-06-17T04:49:37.901Z,16.88
2018-06-17T04:50:37.858Z,16.88
2018-06-17T04:51:37.815Z,16.88
2018-06-17T04:52:37.773Z,16.88
2018-06-17T04:53:37.730Z,22.50
2018-06-17T04:54:37.687Z,22.50
2018-06-17T04:55:37.645Z,22.50
2018-06-17T04:56:37.603Z,22.50
2018-06-17T04:57:37.559Z,22.50
2018-06-17T04:58:37.517Z,22.50
2018-06-17T04:59:37.476Z,22.50
2018-06-17T05:00:37.432Z,22.50
2018-06-17T05:01:37.388Z,22.50
2018-06-17T05:02:37.345Z,22.50
2018-06-17T05:03:37.303Z,28.13
2018-06-17T05:04:37.260Z,28.13
2018-06-17T05:05:37.217Z,28.13
2018-06-17T05:06:37.174Z,28.13
2018-06-17T05:07:37.134Z,28.13
2018-06-17T05:08:37.094Z,28.13
2018-06-17T05:09:37.047Z,28.13
2018-06-17T05:10:37.004Z,22.50
2018-06-17T05:11:36.963Z,22.50
2018-06-17T05:12:36.919Z,22.50
2018-06-17T05:13:36.876Z,22.50
2018-06-17T05:14:36.834Z,22.50
2018-06-17T05:15:36.799Z,22.50
2018-06-17T05:16:36.749Z,22.50
2018-06-17T05:17:36.705Z,16.88
2018-06-17T05:18:36.663Z,11.25
2018-06-17T05:19:36.621Z,11.25
2018-06-17T05:20:36.579Z,16.88
2018-06-17T05:21:36.535Z,16.88
2018-06-17T05:22:36.493Z,11.25
2018-06-17T05:23:36.450Z,11.25
2018-06-17T05:24:36.410Z,11.25
2018-06-17T05:25:36.365Z,28.13
2018-06-17T05:26:36.323Z,28.13
2018-06-17T05:27:36.280Z,28.13
2018-06-17T05:28:36.244Z,28.13
2018-06-17T05:29:36.199Z,28.13
2018-06-17T05:30:36.152Z,28.13
2018-06-17T05:31:36.110Z,28.13
2018-06-17T05:32:36.068Z,28.13
2018-06-17T05:33:36.025Z,28.13
2018-06-17T05:34:35.982Z,28.13
2018-06-17T05:35:35.944Z,28.13
2018-06-17T05:36:35.899Z,33.75
2018-06-17T05:37:35.855Z,33.75
2018-06-17T05:38:35.812Z,33.75
2018-06-17T05:39:35.771Z,33.75
2018-06-17T05:40:35.730Z,33.75
2018-06-17T05:41:35.690Z,33.75
2018-06-17T05:42:35.642Z,33.75
2018-06-17T05:43:35.601Z,33.75
2018-06-17T05:44:35.558Z,33.75
2018-06-17T05:45:35.515Z,33.75
2018-06-17T05:46:35.473Z,33.75
2018-06-17T05:47:35.488Z,33.75
2018-06-17T05:48:35.389Z,33.75
2018-06-17T05:49:35.346Z,33.75
2018-06-17T05:50:35.308Z,33.75
2018-06-17T05:51:35.262Z,33.75
2018-06-17T05:52:35.220Z,33.75
2018-06-17T05:53:35.176Z,33.75
2018-06-17T05:54:35.138Z,33.75
2018-06-17T05:55:35.099Z,33.75
2018-06-17T05:56:35.050Z,39.38
2018-06-17T05:57:35.007Z,39.38
2018-06-17T05:58:35.007Z,39.38
2018-06-17T05:59:34.923Z,39.38
2018-06-17T06:00:34.882Z,39.38
2018-06-17T06:01:34.843Z,39.38
2018-06-17T06:02:34.798Z,39.38
2018-06-17T06:03:34.754Z,39.38
2018-06-17T06:04:34.712Z,39.38
2018-06-17T06:05:34.719Z,39.38
2018-06-17T06:06:34.627Z,39.38
2018-06-17T06:07:34.585Z,39.38
2018-06-17T06:08:34.543Z,39.38
2018-06-17T06:09:34.500Z,39.38
2018-06-17T06:10:34.461Z,39.38
2018-06-17T06:11:34.416Z,39.38
2018-06-17T06:12:34.375Z,39.38
2018-06-17T06:13:34.331Z,39.38
2018-06-17T06:14:34.289Z,39.38
2018-06-17T06:15:34.247Z,39.38
2018-06-17T06:16:34.206Z,39.38
2018-06-17T06:17:34.163Z,39.38
2018-06-17T06:18:34.127Z,39.38
2018-06-17T06:19:34.079Z,39.38
2018-06-17T06:20:34.038Z,45.00
2018-06-17T06:21:33.994Z,45.00
2018-06-17T06:22:34.003Z,45.00
2018-06-17T06:23:33.910Z,45.00
2018-06-17T06:24:33.874Z,45.00
2018-06-17T06:25:33.826Z,45.00
2018-06-17T06:26:33.785Z,45.00
2018-06-17T06:27:33.743Z,45.00
2018-06-17T06:28:33.700Z,45.00
2018-06-17T06:29:33.659Z,45.00
2018-06-17T06:30:33.616Z,45.00
2018-06-17T06:31:33.574Z,45.00
2018-06-17T06:32:33.533Z,45.00
2018-06-17T06:33:33.490Z,50.63
2018-06-17T06:34:33.451Z,50.63
2018-06-17T06:35:33.413Z,50.63
2018-06-17T06:36:33.365Z,50.63
2018-06-17T06:37:33.324Z,50.63
2018-06-17T06:38:33.281Z,50.63
2018-06-17T06:39:33.239Z,50.63
2018-06-17T06:40:33.200Z,50.63
2018-06-17T06:41:33.155Z,50.63
2018-06-17T06:42:33.114Z,50.63
2018-06-17T06:43:33.071Z,50.63
2018-06-17T06:44:33.030Z,50.63
2018-06-17T06:45:33.013Z,50.63
2018-06-17T06:46:32.946Z,50.63
2018-06-17T06:47:32.905Z,50.63
2018-06-17T06:48:32.863Z,50.63
2018-06-17T06:49:32.820Z,56.25
2018-06-17T06:50:32.779Z,56.25
2018-06-17T06:51:32.738Z,56.25
2018-06-17T06:52:32.696Z,56.25
2018-06-17T06:53:32.654Z,56.25
2018-06-17T06:54:32.612Z,56.25
2018-06-17T06:55:32.571Z,56.25
2018-06-17T06:56:32.530Z,56.25
2018-06-17T06:57:32.500Z,56.25
2018-06-17T06:58:32.446Z,56.25
2018-06-17T06:59:32.405Z,56.25
2018-06-17T07:00:32.364Z,56.25
2018-06-17T07:01:32.322Z,56.25
2018-06-17T07:02:32.281Z,56.25
2018-06-17T07:03:32.239Z,56.25
2018-06-17T07:04:32.197Z,61.88
2018-06-17T07:05:32.154Z,61.88
2018-06-17T07:06:32.113Z,61.88
2018-06-17T07:07:32.072Z,61.88
2018-06-17T07:08:32.031Z,61.88
2018-06-17T07:09:31.988Z,61.88
2018-06-17T07:10:31.948Z,61.88
2018-06-17T07:11:31.906Z,61.88
2018-06-17T07:12:31.865Z,61.88
2018-06-17T07:13:31.822Z,61.88
2018-06-17T07:14:31.781Z,61.88
2018-06-17T07:15:31.740Z,61.88
2018-06-17T07:16:31.698Z,67.50
2018-06-17T07:17:31.659Z,67.50
2018-06-17T07:18:31.616Z,67.50
2018-06-17T07:19:31.574Z,67.50
2018-06-17T07:20:31.533Z,67.50
2018-06-17T07:21:31.491Z,67.50
2018-06-17T07:22:31.450Z,67.50
2018-06-17T07:23:31.408Z,67.50
2018-06-17T07:24:31.367Z,67.50
2018-06-17T07:25:31.325Z,67.50
2018-06-17T07:26:31.285Z,67.50
2018-06-17T07:27:31.243Z,67.50
2018-06-17T07:28:31.202Z,67.50
2018-06-17T07:29:31.164Z,73.13
2018-06-17T07:30:31.269Z,73.13
2018-06-17T07:31:31.078Z,73.13
2018-06-17T07:32:31.037Z,73.13
2018-06-17T07:33:30.998Z,73.13
2018-06-17T07:34:30.957Z,73.13
2018-06-17T07:35:30.913Z,73.13
2018-06-17T07:36:30.879Z,73.13
2018-06-17T07:37:30.830Z,73.13
2018-06-17T07:38:30.789Z,73.13
2018-06-17T07:39:30.749Z,73.13
2018-06-17T07:40:30.708Z,73.13
2018-06-17T07:41:30.665Z,73.13
2018-06-17T07:42:30.624Z,73.13
2018-06-17T07:43:30.583Z,73.13
2018-06-17T07:44:30.542Z,78.75
2018-06-17T07:45:30.500Z,78.75
2018-06-17T07:46:30.461Z,78.75
2018-06-17T07:47:30.419Z,73.13
2018-06-17T07:48:30.380Z,78.75
2018-06-17T07:49:30.336Z,78.75
2018-06-17T07:50:30.295Z,78.75
2018-06-17T07:51:30.255Z,78.75
2018-06-17T07:52:30.213Z,78.75
2018-06-17T07:53:30.171Z,78.75
2018-06-17T07:54:30.131Z,78.75
2018-06-17T07:55:30.090Z,78.75
2018-06-17T07:56:30.049Z,78.75
2018-06-17T07:57:30.008Z,84.38
2018-06-17T07:58:29.966Z,84.38
2018-06-17T07:59:29.925Z,84.38
2018-06-17T08:00:29.884Z,84.38
2018-06-17T08:01:29.842Z,84.38
2018-06-17T08:02:29.801Z,84.38
2018-06-17T08:03:29.761Z,84.38
2018-06-17T08:04:29.720Z,84.38
2018-06-17T08:05:29.678Z,84.38
2018-06-17T08:06:29.637Z,90.00
2018-06-17T08:07:29.596Z,90.00
2018-06-17T08:08:29.556Z,90.00
2018-06-17T08:09:29.516Z,90.00
2018-06-17T08:10:29.473Z,90.00
2018-06-17T08:11:29.434Z,90.00
2018-06-17T08:12:29.391Z,90.00
2018-06-17T08:13:29.351Z,84.38
2018-06-17T08:14:29.311Z,90.00
2018-06-17T08:15:29.274Z,90.00
2018-06-17T08:16:29.235Z,90.00
2018-06-17T08:17:29.187Z,90.00
2018-06-17T08:18:29.146Z,95.63
2018-06-17T08:19:29.106Z,95.63
2018-06-17T08:20:29.066Z,95.63
2018-06-17T08:21:29.024Z,95.63
2018-06-17T08:22:28.983Z,101.25
2018-06-17T08:23:28.943Z,95.63
2018-06-17T08:24:28.902Z,101.25
2018-06-17T08:25:28.860Z,84.38
2018-06-17T08:26:28.822Z,61.88
2018-06-17T08:27:28.779Z,78.75
2018-06-17T08:28:28.739Z,84.38
2018-06-17T08:29:28.697Z,95.63
2018-06-17T08:30:28.659Z,101.25
2018-06-17T08:31:28.617Z,106.88
2018-06-17T08:32:28.577Z,101.25
2018-06-17T08:33:28.535Z,101.25
2018-06-17T08:34:28.495Z,101.25
2018-06-17T08:35:28.455Z,101.25
2018-06-17T08:36:28.417Z,106.88
2018-06-17T08:37:28.373Z,90.00
2018-06-17T08:38:28.333Z,56.25
2018-06-17T08:39:28.292Z,50.63
2018-06-17T08:40:28.252Z,61.88
2018-06-17T08:41:28.211Z,90.00
2018-06-17T08:42:28.171Z,112.50
2018-06-17T08:43:28.132Z,112.50
2018-06-17T08:44:28.100Z,106.88
2018-06-17T08:45:28.050Z,84.38
2018-06-17T08:46:28.011Z,73.13
2018-06-17T08:47:27.970Z,73.13
2018-06-17T08:48:27.931Z,78.75
2018-06-17T08:49:27.902Z,95.63
2018-06-17T08:50:27.849Z,90.00
2018-06-17T08:51:27.809Z,106.88
2018-06-17T08:52:27.769Z,106.88
2018-06-17T08:53:27.729Z,112.50
2018-06-17T08:54:27.689Z,78.75
2018-06-17T08:55:27.649Z,84.38
2018-06-17T08:56:27.610Z,84.38
2018-06-17T08:57:27.570Z,61.88
2018-06-17T08:58:27.528Z,61.88
2018-06-17T08:59:27.489Z,67.50
2018-06-17T09:00:27.449Z,73.13
2018-06-17T09:01:27.409Z,61.88
2018-06-17T09:02:27.369Z,95.63
2018-06-17T09:03:27.330Z,61.88
2018-06-17T09:04:27.289Z,106.88
2018-06-17T09:05:27.254Z,112.50
2018-06-17T09:06:27.210Z,67.50
2018-06-17T09:07:27.170Z,61.88
2018-06-17T09:08:27.130Z,61.88
2018-06-17T09:09:27.093Z,106.88
2018-06-17T09:10:27.050Z,118.13
2018-06-17T09:11:27.009Z,67.50
2018-06-17T09:12:27.007Z,106.88
2018-06-17T09:13:26.929Z,112.50
2018-06-17T09:14:26.889Z,118.13
2018-06-17T09:15:26.850Z,112.50
2018-06-17T09:16:26.812Z,118.13
2018-06-17T09:17:26.770Z,118.13
2018-06-17T09:18:26.731Z,118.13
2018-06-17T09:19:26.691Z,123.75
2018-06-17T09:20:26.651Z,163.13
2018-06-17T09:21:26.610Z,230.63
2018-06-17T09:22:26.571Z,270.00
2018-06-17T09:23:26.532Z,292.50
2018-06-17T09:24:26.492Z,320.63
2018-06-17T09:25:26.452Z,168.75
2018-06-17T09:26:26.413Z,219.38
2018-06-17T09:27:26.374Z,219.38
2018-06-17T09:28:26.334Z,270.00
2018-06-17T09:29:26.294Z,298.13
2018-06-17T09:30:26.255Z,433.13
2018-06-17T09:31:26.215Z,618.75
2018-06-17T09:32:26.176Z,545.63
2018-06-17T09:33:26.136Z,410.63
2018-06-17T09:34:26.097Z,298.13
2018-06-17T09:35:26.059Z,230.63
2018-06-17T09:36:26.024Z,213.75
2018-06-17T09:37:25.981Z,208.13
2018-06-17T09:38:25.939Z,185.63
2018-06-17T09:39:25.900Z,157.50
2018-06-17T09:40:25.861Z,163.13
2018-06-17T09:41:25.820Z,163.13
2018-06-17T09:42:25.782Z,135.00
2018-06-17T09:43:25.743Z,129.38
2018-06-17T09:44:25.716Z,140.63
2018-06-17T09:45:25.665Z,163.13
2018-06-17T09:46:25.629Z,185.63
2018-06-17T09:47:25.586Z,202.50
2018-06-17T09:48:25.547Z,163.13
2018-06-17T09:49:25.507Z,73.13
2018-06-17T09:50:25.470Z,39.38
2018-06-17T09:51:25.429Z,39.38
2018-06-17T09:52:25.390Z,33.75
2018-06-17T09:53:25.350Z,33.75
2018-06-17T09:54:25.311Z,33.75
2018-06-17T09:55:25.272Z,33.75
2018-06-17T09:56:25.234Z,33.75
2018-06-17T09:57:25.192Z,33.75
2018-06-17T09:58:25.182Z,33.75
2018-06-17T09:59:25.114Z,33.75
2018-06-17T10:00:25.075Z,33.75
2018-06-17T10:01:25.079Z,33.75
2018-06-17T10:02:24.996Z,39.38
2018-06-17T10:03:24.956Z,39.38
2018-06-17T10:04:24.916Z,39.38
2018-06-17T10:05:24.875Z,39.38
2018-06-17T10:06:24.837Z,39.38
2018-06-17T10:07:24.796Z,45.00
2018-06-17T10:08:24.756Z,39.38
2018-06-17T10:09:24.716Z,39.38
2018-06-17T10:10:24.677Z,33.75
2018-06-17T10:11:24.636Z,39.38
2018-06-17T10:12:24.597Z,39.38
2018-06-17T10:13:24.557Z,39.38
2018-06-17T10:14:24.516Z,28.13
2018-06-17T10:15:24.477Z,39.38
2018-06-17T10:16:24.436Z,39.38
2018-06-17T10:17:24.396Z,39.38
2018-06-17T10:18:24.356Z,39.38
2018-06-17T10:19:24.316Z,45.00
2018-06-17T10:20:24.278Z,45.00
2018-06-17T10:21:24.236Z,39.38
2018-06-17T10:22:24.196Z,45.00
2018-06-17T10:23:24.156Z,45.00
2018-06-17T10:24:24.116Z,39.38
2018-06-17T10:25:24.125Z,33.75
2018-06-17T10:26:24.036Z,33.75
2018-06-17T10:27:23.995Z,39.38
2018-06-17T10:28:23.954Z,39.38
2018-06-17T10:29:23.971Z,45.00
2018-06-17T10:30:23.873Z,39.38
2018-06-17T10:31:23.837Z,45.00
2018-06-17T10:32:23.794Z,45.00
2018-06-17T10:33:23.756Z,45.00
2018-06-17T10:34:23.713Z,45.00
2018-06-17T10:35:23.673Z,45.00
2018-06-17T10:36:23.633Z,39.38
2018-06-17T10:37:23.592Z,33.75
2018-06-17T10:38:23.551Z,33.75
2018-06-17T10:39:23.512Z,33.75
2018-06-17T10:40:23.471Z,33.75
2018-06-17T10:41:23.430Z,33.75
2018-06-17T10:42:23.392Z,28.13
2018-06-17T10:43:23.389Z,28.13
2018-06-17T10:44:23.320Z,33.75
2018-06-17T10:45:23.271Z,28.13
2018-06-17T10:46:23.229Z,33.75
2018-06-17T10:47:23.191Z,33.75
2018-06-17T10:48:23.149Z,28.13
2018-06-17T10:49:23.112Z,28.13
2018-06-17T10:50:23.126Z,33.75
2018-06-17T10:51:23.027Z,39.38
2018-06-17T10:52:22.987Z,39.38
2018-06-17T10:53:22.951Z,33.75
2018-06-17T10:54:22.908Z,33.75
2018-06-17T10:55:22.870Z,33.75
2018-06-17T10:56:22.826Z,28.13
2018-06-17T10:57:22.785Z,22.50
2018-06-17T10:58:22.746Z,22.50
2018-06-17T10:59:22.704Z,28.13
2018-06-17T11:00:22.666Z,28.13
2018-06-17T11:01:22.624Z,22.50
2018-06-17T11:02:22.583Z,33.75
2018-06-17T11:03:22.544Z,33.75
2018-06-17T11:04:22.503Z,28.13
2018-06-17T11:05:22.466Z,28.13
2018-06-17T11:06:22.425Z,28.13
2018-06-17T11:07:22.388Z,33.75
2018-06-17T11:08:22.341Z,28.13
2018-06-17T11:09:22.300Z,33.75
2018-06-17T11:10:22.264Z,33.75
2018-06-17T11:11:22.220Z,22.50
2018-06-17T11:12:22.180Z,28.13
2018-06-17T11:13:22.300Z,28.13
2018-06-17T11:14:22.098Z,28.13
2018-06-17T11:15:22.059Z,28.13
2018-06-17T11:16:22.018Z,28.13
2018-06-17T11:17:21.977Z,22.50
2018-06-17T11:18:21.936Z,22.50
2018-06-17T11:19:21.897Z,22.50
2018-06-17T11:20:21.863Z,22.50
2018-06-17T11:21:21.815Z,22.50
2018-06-17T11:22:21.775Z,28.13
2018-06-17T11:23:21.736Z,28.13
2018-06-17T11:24:21.694Z,28.13
2018-06-17T11:25:21.654Z,16.88
2018-06-17T11:26:21.613Z,22.50
2018-06-17T11:27:21.576Z,22.50
2018-06-17T11:28:21.533Z,33.75
2018-06-17T11:29:21.492Z,28.13
2018-06-17T11:30:21.451Z,33.75
2018-06-17T11:31:21.411Z,33.75
2018-06-17T11:32:21.371Z,28.13
2018-06-17T11:33:21.330Z,28.13
2018-06-17T11:34:21.290Z,22.50
2018-06-17T11:35:21.249Z,22.50
2018-06-17T11:36:21.209Z,28.13
2018-06-17T11:37:21.168Z,28.13
2018-06-17T11:38:21.128Z,28.13
2018-06-17T11:39:21.088Z,22.50
2018-06-17T11:40:21.052Z,22.50
2018-06-17T11:41:21.007Z,16.88
2018-06-17T11:42:20.966Z,22.50
2018-06-17T11:43:20.925Z,22.50
2018-06-17T11:44:20.886Z,22.50
2018-06-17T11:45:20.844Z,28.13
2018-06-17T11:46:20.835Z,22.50
2018-06-17T11:47:20.764Z,22.50
2018-06-17T11:48:20.723Z,22.50
2018-06-17T11:49:20.682Z,22.50
2018-06-17T11:50:20.642Z,22.50
2018-06-17T11:51:20.651Z,28.13
2018-06-17T11:52:20.561Z,22.50
2018-06-17T11:53:20.526Z,22.50
2018-06-17T11:54:20.480Z,22.50
2018-06-17T11:55:20.440Z,16.88
2018-06-17T11:56:20.410Z,16.88
2018-06-17T11:57:20.357Z,16.88
2018-06-17T11:58:20.317Z,16.88
2018-06-17T11:59:20.277Z,16.88
2018-06-17T12:00:20.237Z,16.88
2018-06-17T12:01:20.200Z,16.88
2018-06-17T12:02:20.156Z,16.88
2018-06-17T12:03:20.115Z,16.88
2018-06-17T12:04:20.075Z,16.88
2018-06-17T12:05:20.034Z,11.25
2018-06-17T12:06:19.994Z,16.88
2018-06-17T12:07:19.953Z,16.88
2018-06-17T12:08:19.913Z,16.88
2018-06-17T12:09:19.871Z,16.88
2018-06-17T12:10:19.831Z,16.88
2018-06-17T12:11:19.791Z,16.88
2018-06-17T12:12:19.750Z,16.88
2018-06-17T12:13:19.709Z,16.88
2018-06-17T12:14:19.668Z,16.88
2018-06-17T12:15:19.629Z,16.88
2018-06-17T12:16:19.592Z,22.50
2018-06-17T12:17:19.597Z,22.50
2018-06-17T12:18:19.506Z,22.50
2018-06-17T12:19:19.466Z,16.88
2018-06-17T12:20:19.426Z,16.88
2018-06-17T12:21:19.385Z,22.50
2018-06-17T12:22:19.344Z,16.88
2018-06-17T12:23:19.305Z,11.25
2018-06-17T12:24:19.263Z,16.88
2018-06-17T12:25:19.273Z,16.88
2018-06-17T12:26:19.182Z,16.88
2018-06-17T12:27:19.141Z,16.88
2018-06-17T12:28:19.101Z,22.50
2018-06-17T12:29:19.061Z,22.50
2018-06-17T12:30:19.019Z,22.50
2018-06-17T12:31:18.979Z,22.50
2018-06-17T12:32:18.938Z,22.50
2018-06-17T12:33:18.897Z,22.50
2018-06-17T12:34:18.857Z,22.50
2018-06-17T12:35:18.817Z,22.50
2018-06-17T12:36:18.777Z,16.88
2018-06-17T12:37:18.734Z,16.88
2018-06-17T12:38:18.695Z,16.88
2018-06-17T12:39:18.654Z,16.88
2018-06-17T12:40:18.613Z,16.88
2018-06-17T12:41:18.572Z,16.88
2018-06-17T12:42:18.531Z,16.88
2018-06-17T12:43:18.541Z,16.88
2018-06-17T12:44:18.451Z,16.88
2018-06-17T12:45:18.459Z,16.88
2018-06-17T12:46:18.369Z,16.88
2018-06-17T12:47:18.329Z,16.88
2018-06-17T12:48:18.289Z,16.88
2018-06-17T12:49:18.250Z,16.88
2018-06-17T12:50:18.207Z,16.88
2018-06-17T12:51:18.166Z,16.88
2018-06-17T12:52:18.126Z,16.88
2018-06-17T12:53:18.084Z,16.88
2018-06-17T12:54:18.044Z,16.88
2018-06-17T12:55:18.004Z,11.25
2018-06-17T12:56:17.963Z,11.25
2018-06-17T12:57:17.922Z,11.25
2018-06-17T12:58:17.882Z,11.25
2018-06-17T12:59:17.842Z,11.25